Pomona, CA

5:58 AM PDT on September 18, 2014 (GMT -0700)
Canon Lane Station | Change Station
CLOSE
Current Station
Personal Weather Station
Location: Chino Hills, CA
Elevation: 1166 ft
Nearby Weather Stations

Elev 1166 ft 33.96 °N, 117.77 °W | Updated 3 minutes ago

Clear
Clear
61.6 °F
Feels Like 61.6 °F
N
0.0
Wind Variable Wind from SW
Gusts 0.0 mph

Today
High -- | Low -- °F
--% Chance of Precip.
Yesterday
High -- | Low -- °F
Precip. -- in
6:36 AM 6:53 PM
Waning Crescent, 27% visible
Pressure 29.82 in
Visibility 9.0 miles
Clouds Clear
Dew Point 60 °F
Humidity 93%
Rainfall 0.00 in
Snow Depth 0 in , 0 in , 0 in
UV 0.0 out of 12
Pollen 6.80 out of 12
Ozone Good
Flu Activity Not available.
METAR KCNO 181253Z AUTO 28005KT 9SM CLR 19/16 A2984 RMK AO2 SLP098 T01890161

More Conditions Fewer Conditions

Pressure 29.82 in
Visibility 9.0 miles
Clouds Clear
Dew Point 60 °F
Humidity 93%
Rainfall 0.00 in
Snow Depth 0 in , 0 in , 0 in
UV 0.0 out of 12
Pollen 6.80 out of 12
Ozone Good
Flu Activity Not available.
METAR KCNO 181253Z AUTO 28005KT 9SM CLR 19/16 A2984 RMK AO2 SLP098 T01890161

More Conditions Fewer Conditions

10-Day Weather Forecast

Almanac

Astronomy

Sep. 18, 2014 Rise Set
Actual Time 6:36 AM PDT 6:53 PM PDT
Civil Twilight 6:11 AM PDT 7:18 PM PDT
Nautical Twilight 5:42 AM PDT 7:47 PM PDT
Astronomical Twilight 5:12 AM PDT 8:17 PM PDT
Moon 1:43 AM PDT 3:38 PM PDT
Length of Visible Light 13h 06m
Length of Day
12h 16m
Tomorrow will be 2m 6s shorter.
Waning Crescent, 27% of the Moon is Illuminated
Today
Waning Crescent
Sep 24
New
Oct 1
First Quarter
Oct 8
Full
Oct 15
Last Quarter

Today's Extremes

State Highs State Lows

Community

WunderPhotos

Upload Photos

1,754,333 photos uploaded!

Nearby

Air Quality

  Air Quality AQ Index Pollutant
Yesterday Good
OZONE
Current Good
OZONE
Thursday Good
PM10
Thursday Moderate
OZONE
Thursday Good
CO
Thursday Good
NO2

Snow Depth

Station Depth Elevation
Monitor Pass 0 in 8350 ft
Blue Lakes 0 in 8000 ft
Summit Meadow 1 in 9122 ft
Tahoe City Cross 0 in 6750 ft
Spratt Creek 1 in 6200 ft

Earthquake Activity

City Distance Mag. Time & Date
La Quinta, California 85 miles 2.7 8:59 PM PDT
2014-09-15
Minimum magnitude displayed is 2.5.

Coastal Water Temperatures

Place Temperature
Santa Monica Pier 66.9 °F
Los Angeles, CA 68.0 °F
La Jolla, CA 70.0 °F

Nearby Weather Stations